Time;durP1;ratioP1;P1;durP2;ratioP2;P2;SDS_P1;SDS_P2;PMS_P1;PMS_P2;Temp;Humidity;BMP_temperature;BMP_pressure;BME280_temperature;BME280_humidity;BME280_pressure;Samples;Min_cycle;Max_cycle;Signal;HPM_P1;HPM_P2
2023/04/03 00:01:06;;;;;;;2.13;1.57;;;;;;;13.07;58.57;96303.63;5070009;28;20650;-75
2023/04/03 00:03:33;;;;;;;1.37;1.27;;;;;;;12.99;58.05;96308.50;5087346;28;20687;-74
2023/04/03 00:06:01;;;;;;;1.80;1.40;;;;;;;13.11;58.15;96309.47;5088173;28;20198;-75
2023/04/03 00:08:30;;;;;;;3.87;1.47;;;;;;;13.19;57.96;96308.97;5087743;28;20205;-75
2023/04/03 00:10:57;;;;;;;1.73;1.50;;;;;;;13.17;57.76;96308.22;5087638;28;20249;-74
2023/04/03 00:13:24;;;;;;;2.43;1.50;;;;;;;13.11;57.79;96298.25;5088132;28;20218;-77
2023/04/03 00:15:52;;;;;;;1.90;1.50;;;;;;;13.11;58.01;96300.84;5086846;28;20229;-75
2023/04/03 00:18:19;;;;;;;2.33;2.00;;;;;;;13.10;57.67;96306.97;5087990;28;20202;-78
2023/04/03 00:20:46;;;;;;;1.93;1.60;;;;;;;12.89;59.03;96299.66;5086765;28;20231;-74
2023/04/03 00:23:13;;;;;;;2.50;2.10;;;;;;;12.97;58.55;96301.72;5087686;28;20223;-74
2023/04/03 00:25:41;;;;;;;2.43;1.73;;;;;;;12.89;58.63;96286.66;5087189;28;20205;-72
2023/04/03 00:28:08;;;;;;;3.07;2.10;;;;;;;12.91;59.39;96302.13;5052477;28;20639;-75
2023/04/03 00:30:35;;;;;;;3.57;2.00;;;;;;;12.76;60.01;96306.56;5087142;28;20225;-74
2023/04/03 00:33:02;;;;;;;2.40;1.70;;;;;;;12.82;59.33;96308.78;5087005;28;20208;-73
2023/04/03 00:35:30;;;;;;;2.50;1.83;;;;;;;12.77;59.58;96297.88;5087675;28;20271;-73
2023/04/03 00:37:57;;;;;;;2.33;1.70;;;;;;;12.62;59.33;96296.28;5086354;28;20578;-73
2023/04/03 00:40:26;;;;;;;2.83;2.10;;;;;;;12.57;59.31;96298.31;5087413;28;20182;-74
2023/04/03 00:42:58;;;;;;;2.93;2.30;;;;;;;12.56;59.50;96295.84;5102394;28;20189;-76
2023/04/03 00:45:32;;;;;;;4.27;1.83;;;;;;;12.35;60.94;96279.88;5086826;28;20528;-73
2023/04/03 00:48:01;;;;;;;2.00;1.80;;;;;;;12.41;60.77;96289.03;5069130;28;20191;-74
2023/04/03 00:50:29;;;;;;;3.43;2.00;;;;;;;12.27;60.43;96270.00;5086406;28;20218;-72
2023/04/03 00:52:57;;;;;;;1.97;1.80;;;;;;;12.21;60.84;96287.72;5069237;28;20197;-74
2023/04/03 00:55:25;;;;;;;2.27;1.83;;;;;;;12.24;60.64;96303.94;5101861;28;20202;-72
2023/04/03 00:57:53;;;;;;;2.83;2.20;;;;;;;12.09;60.94;96307.53;5087147;28;20254;-75
2023/04/03 01:00:22;;;;;;;2.87;2.40;;;;;;;12.05;61.64;96320.78;5086744;28;20722;-77
2023/04/03 01:02:50;;;;;;;2.70;2.30;;;;;;;12.19;61.49;96316.41;5086573;28;20211;-78
2023/04/03 01:05:20;;;;;;;3.03;2.27;;;;;;;11.84;62.50;96316.94;5087290;28;20234;-73
2023/04/03 01:07:49;;;;;;;3.33;2.10;;;;;;;11.48;64.00;96313.03;5068002;28;20292;-73
2023/04/03 01:10:17;;;;;;;2.90;2.23;;;;;;;11.61;63.88;96320.06;5069102;28;20229;-77
2023/04/03 01:12:46;;;;;;;3.77;2.20;;;;;;;11.52;63.92;96315.47;5086627;28;20623;-78
2023/04/03 01:15:21;;;;;;;4.93;3.03;;;;;;;11.39;64.33;96316.22;5052622;28;20280;-74
2023/04/03 01:17:56;;;;;;;7.17;3.13;;;;;;;11.07;65.40;96309.50;5086831;28;20237;-79
2023/04/03 01:20:35;;;;;;;6.03;3.50;;;;;;;10.83;65.47;96305.78;5067920;28;20664;-77
2023/04/03 01:23:08;;;;;;;4.27;2.90;;;;;;;10.83;65.85;96315.31;5087325;28;20210;-77
2023/04/03 01:25:46;;;;;;;3.60;2.50;;;;;;;10.82;65.79;96322.22;5087191;28;20260;-77
2023/04/03 01:28:41;;;;;;;4.27;3.07;;;;;;;10.58;65.86;96313.31;5069510;28;20224;-76
2023/04/03 01:31:15;;;;;;;4.07;3.10;;;;;;;10.47;66.94;96328.59;5099807;28;20209;-74
2023/04/03 01:33:43;;;;;;;3.17;2.83;;;;;;;10.29;67.67;96324.47;5067981;28;20224;-75
2023/04/03 01:36:19;;;;;;;2.27;2.07;;;;;;;9.91;68.41;96315.38;5068800;28;20199;-73
2023/04/03 01:38:46;;;;;;;2.10;1.90;;;;;;;9.73;69.26;96330.13;5068233;28;20235;-74
2023/04/03 01:41:14;;;;;;;2.57;2.10;;;;;;;9.58;70.03;96331.78;5069547;28;20271;-73
2023/04/03 01:43:42;;;;;;;2.90;2.23;;;;;;;9.50;71.05;96310.66;5072395;28;20185;-75
2023/04/03 01:46:09;;;;;;;4.23;2.70;;;;;;;9.53;70.60;96312.28;5090184;28;20253;-71
2023/04/03 01:48:37;;;;;;;3.17;2.50;;;;;;;9.58;70.38;96323.22;5072893;28;20309;-77
2023/04/03 01:51:04;;;;;;;3.13;2.60;;;;;;;9.46;70.04;96316.09;5071590;28;20642;-74
2023/04/03 01:53:31;;;;;;;3.50;2.23;;;;;;;9.52;69.91;96324.34;5090928;28;20189;-78
2023/04/03 01:55:58;;;;;;;3.93;2.60;;;;;;;9.49;69.41;96316.78;5089416;28;20190;-79
2023/04/03 01:58:25;;;;;;;3.07;2.30;;;;;;;9.62;69.07;96328.09;5072031;28;20201;-75
2023/04/03 02:00:54;;;;;;;2.20;2.00;;;;;;;9.77;68.61;96327.28;5071866;28;20219;-77
2023/04/03 02:03:21;;;;;;;3.57;2.33;;;;;;;9.84;68.04;96326.06;5089934;28;20188;-76
2023/04/03 02:05:49;;;;;;;2.83;2.13;;;;;;;9.93;67.81;96331.66;5072130;28;20211;-81
2023/04/03 02:08:19;;;;;;;5.13;2.50;;;;;;;9.98;67.17;96342.56;5071333;28;20181;-80
2023/04/03 02:10:48;;;;;;;3.23;2.60;;;;;;;9.96;66.82;96327.13;5090465;28;20225;-76
2023/04/03 02:13:16;;;;;;;3.10;2.60;;;;;;;10.13;66.71;96329.66;5089320;28;20193;-77
2023/04/03 02:15:45;;;;;;;4.30;2.57;;;;;;;10.03;66.90;96344.00;5072042;28;20206;-77
2023/04/03 02:18:16;;;;;;;6.73;2.83;;;;;;;10.00;66.96;96333.81;5089923;28;20201;-78
2023/04/03 02:20:43;;;;;;;3.83;2.73;;;;;;;10.00;67.03;96327.78;5089362;28;20290;-77
2023/04/03 02:23:10;;;;;;;4.63;2.30;;;;;;;9.92;67.20;96319.63;5091214;28;20216;-74
2023/04/03 02:25:37;;;;;;;3.23;2.50;;;;;;;9.92;66.98;96341.16;5089810;28;20218;-75
2023/04/03 02:28:05;;;;;;;3.73;2.60;;;;;;;9.98;67.11;96339.97;5076818;28;20188;-75
2023/04/03 02:30:32;;;;;;;3.63;2.67;;;;;;;10.01;66.78;96340.66;5098091;28;20319;-78
2023/04/03 02:33:00;;;;;;;5.67;2.70;;;;;;;10.09;66.52;96340.22;5096455;28;20177;-76
2023/04/03 02:35:27;;;;;;;5.03;2.67;;;;;;;10.22;66.17;96349.03;5075524;28;20631;-79
2023/04/03 02:37:56;;;;;;;3.07;2.50;;;;;;;10.31;65.65;96332.97;5074810;28;20239;-77
2023/04/03 02:40:23;;;;;;;3.50;2.73;;;;;;;10.21;65.40;96348.19;5105391;28;20197;-78
2023/04/03 02:42:50;;;;;;;3.87;2.63;;;;;;;10.06;66.19;96350.72;5088894;28;20181;-76
2023/04/03 02:45:18;;;;;;;3.70;2.73;;;;;;;9.74;66.93;96350.75;5071847;28;20262;-78
2023/04/03 02:47:45;;;;;;;4.50;3.00;;;;;;;9.62;67.54;96343.63;5088665;28;20220;-79
2023/04/03 02:50:12;;;;;;;4.13;2.80;;;;;;;9.39;68.06;96353.50;5071364;28;20780;-76
2023/04/03 02:52:39;;;;;;;3.90;2.80;;;;;;;9.33;68.43;96356.41;5104627;28;20189;-79
2023/04/03 02:55:07;;;;;;;4.90;2.70;;;;;;;9.40;68.20;96340.50;5071043;28;20181;-77
2023/04/03 02:57:35;;;;;;;3.93;2.33;;;;;;;9.21;69.00;96350.13;5088292;28;20189;-76
2023/04/03 03:00:03;;;;;;;2.90;2.30;;;;;;;9.02;68.88;96337.34;5070512;28;20208;-77
2023/04/03 03:02:30;;;;;;;3.60;1.93;;;;;;;9.22;69.09;96348.38;5089557;28;20204;-79
2023/04/03 03:04:57;;;;;;;2.10;1.80;;;;;;;9.28;68.89;96348.06;5088876;28;20212;-80
2023/04/03 03:07:24;;;;;;;2.57;2.20;;;;;;;9.33;68.23;96346.94;5089741;28;20240;-79
2023/04/03 03:09:51;;;;;;;3.57;2.23;;;;;;;9.50;68.14;96346.03;5088649;28;20772;-80
2023/04/03 03:12:21;;;;;;;2.47;2.27;;;;;;;9.10;68.10;96323.19;5088886;28;20215;-80
2023/04/03 03:14:49;;;;;;;3.53;2.10;;;;;;;9.08;68.74;96330.16;5071063;28;20216;-81
2023/04/03 03:17:16;;;;;;;4.40;2.20;;;;;;;8.99;68.74;96341.78;5079369;28;20197;-79
2023/04/03 03:19:45;;;;;;;2.70;2.00;;;;;;;8.81;69.63;96338.41;5051238;28;20199;-77
2023/04/03 03:22:12;;;;;;;3.43;2.17;;;;;;;8.87;69.45;96338.09;5051802;28;20224;-80
2023/04/03 03:24:39;;;;;;;2.87;2.30;;;;;;;8.76;69.05;96322.28;5069058;28;20262;-78
2023/04/03 03:27:06;;;;;;;2.87;2.27;;;;;;;8.90;68.43;96327.59;5050230;28;20251;-79
2023/04/03 03:29:33;;;;;;;4.60;2.60;;;;;;;9.14;67.93;96333.28;5068568;28;20229;-79
2023/04/03 03:32:01;;;;;;;3.37;2.40;;;;;;;9.21;67.20;96318.31;5051307;28;20197;-80
2023/04/03 03:34:29;;;;;;;5.77;3.63;;;;;;;9.23;67.50;96322.47;5053681;28;20211;-76
2023/04/03 03:36:55;;;;;;;4.97;3.70;;;;;;;9.23;67.64;96330.22;5086214;28;20211;-78
2023/04/03 03:39:22;;;;;;;3.73;3.37;;;;;;;9.11;68.33;96317.91;5087579;28;20279;-76
2023/04/03 03:41:50;;;;;;;7.10;4.13;;;;;;;9.30;67.49;96313.47;5070357;28;20188;-78
2023/04/03 03:44:17;;;;;;;7.53;4.77;;;;;;;9.45;67.55;96327.34;5068370;28;20204;-77
2023/04/03 03:46:44;;;;;;;6.23;4.10;;;;;;;9.58;66.44;96331.78;5072500;28;20719;-79
2023/04/03 03:49:11;;;;;;;4.27;3.70;;;;;;;9.46;66.40;96326.44;5050373;28;20275;-80
2023/04/03 03:51:40;;;;;;;4.40;3.60;;;;;;;9.48;67.39;96319.44;5058420;28;20244;-76
2023/04/03 03:54:07;;;;;;;6.93;4.10;;;;;;;9.47;67.37;96303.09;5058108;28;20254;-76
2023/04/03 03:56:35;;;;;;;6.23;3.87;;;;;;;9.71;66.71;96314.69;5049260;28;20189;-78
2023/04/03 03:59:02;;;;;;;9.97;4.83;;;;;;;9.80;66.12;96301.28;5083575;28;20570;-76
2023/04/03 04:01:31;;;;;;;7.23;4.90;;;;;;;10.02;65.87;96320.78;5055691;28;20200;-81
2023/04/03 04:03:58;;;;;;;6.33;4.30;;;;;;;10.07;65.81;96329.13;5087860;28;20193;-78
2023/04/03 04:06:29;;;;;;;7.50;4.30;;;;;;;9.96;65.63;96315.94;5069571;28;20191;-74
2023/04/03 04:09:01;;;;;;;9.97;4.50;;;;;;;9.87;66.02;96308.72;5068735;28;20297;-74
2023/04/03 04:11:29;;;;;;;8.90;4.83;;;;;;;9.70;66.39;96315.63;5049310;28;20306;-74
2023/04/03 04:13:57;;;;;;;7.03;5.30;;;;;;;9.61;67.39;96310.94;5082283;28;20239;-76
2023/04/03 04:16:27;;;;;;;10.17;6.93;;;;;;;9.70;67.02;96305.28;5051151;28;20181;-73
2023/04/03 04:18:56;;;;;;;15.23;7.53;;;;;;;9.77;67.35;96319.53;5070149;28;20195;-80
2023/04/03 04:21:24;;;;;;;11.27;6.53;;;;;;;9.77;66.98;96309.19;5087322;28;20243;-73
2023/04/03 04:23:52;;;;;;;11.53;7.47;;;;;;;9.87;66.60;96321.63;5069325;28;20206;-79
2023/04/03 04:26:20;;;;;;;11.00;7.97;;;;;;;9.60;66.40;96286.00;5069041;28;20177;-73
2023/04/03 04:28:47;;;;;;;8.80;6.50;;;;;;;9.42;67.38;96330.91;5087778;28;20188;-78
2023/04/03 04:31:16;;;;;;;6.80;5.33;;;;;;;8.85;68.88;96313.25;5051947;28;20259;-79
2023/04/03 04:33:43;;;;;;;13.50;5.10;;;;;;;8.84;68.63;96342.59;5087880;28;20197;-73
2023/04/03 04:36:14;;;;;;;11.07;6.17;;;;;;;8.88;69.15;96350.06;5068779;28;20254;-78
2023/04/03 04:38:44;;;;;;;10.90;5.93;;;;;;;9.07;68.31;96352.56;5069254;28;20184;-80
2023/04/03 04:41:11;;;;;;;17.93;8.20;;;;;;;9.36;67.52;96349.34;5069055;28;20185;-81
2023/04/03 04:43:38;;;;;;;10.87;5.37;;;;;;;9.43;67.09;96350.69;5068568;28;20215;-75
2023/04/03 04:46:11;;;;;;;5.73;4.30;;;;;;;9.48;66.87;96342.72;5069320;28;20187;-77
2023/04/03 04:48:44;;;;;;;7.10;3.93;;;;;;;9.40;66.30;96362.91;5068047;28;20213;-79
2023/04/03 04:51:12;;;;;;;7.53;5.13;;;;;;;9.30;67.35;96378.06;5069013;28;20224;-76
2023/04/03 04:53:40;;;;;;;5.93;4.90;;;;;;;9.49;67.09;96372.78;5051855;28;20193;-79
2023/04/03 04:56:09;;;;;;;9.43;5.50;;;;;;;9.65;66.41;96390.00;5068541;28;20322;-79
2023/04/03 04:58:38;;;;;;;11.80;5.33;;;;;;;9.65;65.84;96382.25;5068511;28;20223;-75
2023/04/03 05:01:07;;;;;;;5.50;4.23;;;;;;;9.30;67.23;96378.06;5068161;28;20692;-78
2023/04/03 05:03:38;;;;;;;9.70;5.27;;;;;;;9.30;67.70;96388.41;5086793;28;20200;-74
2023/04/03 05:06:05;;;;;;;6.97;5.17;;;;;;;9.19;67.70;96387.28;5085326;28;20232;-78
2023/04/03 05:08:35;;;;;;;5.60;4.53;;;;;;;9.03;67.87;96385.47;5086814;28;20223;-78
2023/04/03 05:11:03;;;;;;;5.90;4.00;;;;;;;9.06;68.03;96389.66;5068140;28;20698;-82
2023/04/03 05:13:30;;;;;;;4.60;3.43;;;;;;;9.16;68.32;96401.19;5068349;28;20220;-79
2023/04/03 05:15:57;;;;;;;3.57;3.23;;;;;;;9.30;67.73;96392.72;5089289;28;20195;-80
2023/04/03 05:18:25;;;;;;;6.70;3.73;;;;;;;9.44;67.48;96396.28;5055286;28;20226;-75
2023/04/03 05:20:55;;;;;;;4.37;3.20;;;;;;;9.35;67.11;96377.84;5091136;28;20285;-77
2023/04/03 05:23:25;;;;;;;3.83;3.00;;;;;;;9.45;67.32;96376.44;5071636;28;20297;-73
2023/04/03 05:25:53;;;;;;;3.83;2.83;;;;;;;9.84;66.40;96400.22;5056106;28;20268;-74
2023/04/03 05:28:21;;;;;;;4.03;2.63;;;;;;;9.68;66.10;96383.84;5072022;28;20219;-77
2023/04/03 05:30:56;;;;;;;3.50;2.73;;;;;;;9.93;65.90;96388.53;5072137;28;20224;-76
2023/04/03 05:33:26;;;;;;;4.70;2.83;;;;;;;9.81;65.97;96401.19;5106314;28;20190;-76
2023/04/03 05:35:56;;;;;;;3.30;3.00;;;;;;;9.67;67.50;96388.16;5071472;28;20616;-73
2023/04/03 05:38:28;;;;;;;6.07;3.67;;;;;;;9.84;67.34;96390.72;5072528;28;20192;-74
2023/04/03 05:40:56;;;;;;;5.13;3.17;;;;;;;9.94;67.43;96387.63;5071475;28;20193;-75
2023/04/03 05:43:23;;;;;;;3.90;3.43;;;;;;;10.20;67.04;96408.59;5072465;28;20661;-77
2023/04/03 05:45:51;;;;;;;3.40;3.10;;;;;;;10.58;66.00;96386.63;5072113;28;20204;-75
2023/04/03 05:48:20;;;;;;;3.50;3.20;;;;;;;10.79;65.01;96378.56;5071967;28;20276;-72
2023/04/03 05:50:48;;;;;;;8.23;3.30;;;;;;;10.91;64.79;96396.84;5072203;28;20220;-75
2023/04/03 05:53:26;;;;;;;7.57;3.10;;;;;;;10.97;64.21;96386.13;5071561;28;20182;-74
2023/04/03 05:55:55;;;;;;;5.97;3.10;;;;;;;11.18;64.39;96384.88;5072171;28;20195;-74
2023/04/03 05:58:23;;;;;;;5.10;3.70;;;;;;;11.19;63.98;96389.13;5071518;28;20208;-74
2023/04/03 06:00:52;;;;;;;4.13;3.13;;;;;;;11.25;63.79;96401.72;5072222;28;20673;-72
2023/04/03 06:03:19;;;;;;;4.07;3.17;;;;;;;11.24;64.69;96413.03;5071670;28;20191;-77
2023/04/03 06:05:47;;;;;;;8.57;4.83;;;;;;;11.52;64.15;96414.00;5071386;28;20193;-76
2023/04/03 06:08:14;;;;;;;8.87;5.00;;;;;;;11.51;64.47;96404.53;5072204;28;20588;-77
2023/04/03 06:10:41;;;;;;;8.97;4.53;;;;;;;11.70;63.71;96408.59;5070893;28;20221;-77
2023/04/03 06:13:08;;;;;;;6.27;4.33;;;;;;;11.81;62.91;96415.72;5072197;28;20192;-76
2023/04/03 06:15:35;;;;;;;4.37;2.80;;;;;;;11.61;62.29;96390.94;5054210;28;20693;-73
2023/04/03 06:18:02;;;;;;;6.20;3.00;;;;;;;11.47;62.59;96401.31;5089556;28;20712;-73
2023/04/03 06:20:31;;;;;;;4.73;3.30;;;;;;;11.63;62.06;96401.22;5071201;28;20186;-73
2023/04/03 06:22:58;;;;;;;4.03;3.10;;;;;;;11.51;62.27;96414.91;5070824;28;20198;-76
2023/04/03 06:25:27;;;;;;;6.30;2.70;;;;;;;11.42;61.58;96413.69;5071325;28;20184;-73
2023/04/03 06:27:55;;;;;;;2.67;2.47;;;;;;;11.48;60.44;96421.09;5088211;28;20185;-77
2023/04/03 06:30:22;;;;;;;4.97;2.73;;;;;;;11.68;61.32;96426.00;5089277;28;20230;-76
2023/04/03 06:32:50;;;;;;;4.57;2.90;;;;;;;11.73;61.12;96428.28;5088284;28;20193;-73
2023/04/03 06:35:17;;;;;;;5.23;3.23;;;;;;;11.71;61.21;96420.59;5088848;28;20272;-79
2023/04/03 06:37:44;;;;;;;5.13;3.20;;;;;;;11.71;61.21;96412.81;5088951;28;20197;-75
2023/04/03 06:40:20;;;;;;;8.77;4.60;;;;;;;11.99;61.07;96417.19;5088256;28;20671;-77
2023/04/03 06:42:47;;;;;;;17.10;7.00;;;;;;;12.32;59.96;96425.50;5054041;28;20647;-74
2023/04/03 06:45:17;;;;;;;8.37;4.90;;;;;;;12.47;58.62;96434.91;5069665;28;20683;-78
2023/04/03 06:47:45;;;;;;;9.43;4.93;;;;;;;12.58;58.87;96429.03;5089038;28;20210;-76
2023/04/03 06:50:20;;;;;;;8.67;4.00;;;;;;;12.67;58.48;96434.50;5069569;28;20192;-74
2023/04/03 06:52:47;;;;;;;6.30;4.37;;;;;;;12.71;58.46;96403.94;5070148;28;20190;-78
2023/04/03 06:55:14;;;;;;;6.80;3.97;;;;;;;12.85;57.75;96420.31;5088296;28;20194;-78
2023/04/03 06:57:41;;;;;;;6.60;3.83;;;;;;;12.86;57.43;96414.19;5088209;28;20187;-77
2023/04/03 07:00:09;;;;;;;5.87;3.43;;;;;;;12.80;57.83;96424.97;5088669;28;20742;-75
2023/04/03 07:02:36;;;;;;;5.27;4.13;;;;;;;13.08;57.12;96427.47;5087631;28;20215;-75
2023/04/03 07:05:04;;;;;;;5.40;3.20;;;;;;;12.98;56.75;96428.16;5089101;28;20206;-76
2023/04/03 07:07:32;;;;;;;6.53;3.30;;;;;;;12.71;57.15;96388.38;5087812;28;20187;-77
2023/04/03 07:10:00;;;;;;;5.20;3.63;;;;;;;13.02;56.56;96430.44;5070435;28;20187;-74
2023/04/03 07:12:29;;;;;;;14.60;4.70;;;;;;;13.18;57.41;96421.69;5070612;28;20227;-75
2023/04/03 07:14:56;;;;;;;8.37;5.20;;;;;;;13.38;56.46;96419.41;5052536;28;20597;-74
2023/04/03 07:17:22;;;;;;;9.30;5.30;;;;;;;13.47;56.36;96411.00;5069861;28;20582;-78
2023/04/03 07:19:49;;;;;;;10.97;5.27;;;;;;;13.68;55.81;96413.94;5087055;28;20265;-77
2023/04/03 07:22:17;;;;;;;9.30;4.77;;;;;;;13.81;55.62;96414.75;5088499;28;20228;-79
2023/04/03 07:24:44;;;;;;;11.10;5.67;;;;;;;13.89;54.93;96423.69;5069239;28;20279;-78
2023/04/03 07:27:12;;;;;;;10.90;6.60;;;;;;;14.06;54.32;96429.50;5069812;28;20181;-75
2023/04/03 07:29:40;;;;;;;7.23;4.63;;;;;;;14.14;53.64;96432.41;5087525;28;20193;-74
2023/04/03 07:32:06;;;;;;;9.07;5.10;;;;;;;14.24;54.09;96434.28;5068566;28;20231;-77
2023/04/03 07:34:34;;;;;;;12.07;6.37;;;;;;;14.42;53.14;96427.00;5087958;28;20184;-74
2023/04/03 07:37:02;;;;;;;13.07;5.37;;;;;;;14.38;53.13;96431.59;5086686;28;20699;-76
2023/04/03 07:39:29;;;;;;;15.00;9.23;;;;;;;14.49;52.73;96417.78;5087341;28;20195;-76
2023/04/03 07:41:56;;;;;;;11.07;6.50;;;;;;;14.29;52.68;96390.56;5052292;28;20220;-77
2023/04/03 07:44:24;;;;;;;9.80;5.17;;;;;;;14.64;51.96;96435.78;5087738;28;20196;-73
2023/04/03 07:46:51;;;;;;;14.63;5.40;;;;;;;14.79;51.55;96435.63;5087061;28;20199;-79
2023/04/03 07:49:18;;;;;;;15.07;6.67;;;;;;;14.43;51.91;96419.06;5087267;28;20199;-76
2023/04/03 07:51:46;;;;;;;9.20;6.33;;;;;;;14.77;51.00;96433.13;5087258;28;20232;-78
2023/04/03 07:54:13;;;;;;;10.67;6.60;;;;;;;14.96;50.71;96423.00;5086574;28;20223;-79
2023/04/03 07:56:41;;;;;;;13.60;5.10;;;;;;;14.64;51.40;96408.88;5087681;28;20246;-81
2023/04/03 07:59:09;;;;;;;11.13;5.97;;;;;;;14.88;50.82;96416.72;5086801;28;20188;-79
2023/04/03 08:01:36;;;;;;;9.80;5.67;;;;;;;14.98;51.07;96425.53;5087222;28;20203;-79
2023/04/03 08:04:03;;;;;;;9.40;4.97;;;;;;;15.06;51.15;96424.03;5087104;28;20199;-77
2023/04/03 08:06:33;;;;;;;12.03;5.33;;;;;;;15.05;50.35;96396.28;5086678;28;20581;-76
2023/04/03 08:09:16;;;;;;;10.90;6.00;;;;;;;15.11;50.69;96411.47;5069136;28;20690;-77
2023/04/03 08:11:44;;;;;;;11.97;4.50;;;;;;;15.13;50.71;96411.34;5068285;28;20267;-79
2023/04/03 08:14:16;;;;;;;10.83;5.63;;;;;;;15.27;50.56;96412.00;5086281;28;20275;-77
2023/04/03 08:16:45;;;;;;;16.27;6.53;;;;;;;15.41;50.29;96409.19;5084660;28;20185;-79
2023/04/03 08:19:15;;;;;;;15.27;5.77;;;;;;;15.35;50.44;96407.03;5085377;28;20276;-79
2023/04/03 08:21:53;;;;;;;11.73;5.70;;;;;;;15.39;50.24;96399.84;5048631;28;20210;-76
2023/04/03 08:24:20;;;;;;;10.40;6.40;;;;;;;15.46;49.86;96395.81;5086619;28;20555;-79
2023/04/03 08:26:47;;;;;;;13.57;7.03;;;;;;;15.45;49.69;96399.41;5069152;28;20192;-79
2023/04/03 08:29:16;;;;;;;20.03;8.70;;;;;;;15.52;49.42;96394.56;5086557;28;20195;-79
2023/04/03 08:31:43;;;;;;;4.10;3.70;;;;;;;15.17;48.30;96384.94;5086721;28;20223;-77
2023/04/03 08:34:11;;;;;;;4.03;3.33;;;;;;;15.16;48.75;96403.31;5085932;28;20709;-82
2023/04/03 08:36:38;;;;;;;6.50;2.70;;;;;;;15.34;47.59;96391.50;5086796;28;20254;-80
2023/04/03 08:39:05;;;;;;;5.23;2.23;;;;;;;15.16;47.50;96374.63;5086358;28;20233;-81
2023/04/03 08:41:42;;;;;;;5.93;3.07;;;;;;;15.36;47.90;96389.59;5069443;28;20181;-77
2023/04/03 08:44:19;;;;;;;4.80;2.30;;;;;;;15.17;49.29;96378.88;5089502;28;20186;-75
2023/04/03 08:47:08;;;;;;;5.60;2.80;;;;;;;15.10;50.58;96388.13;5087605;28;20188;-75
2023/04/03 08:49:47;;;;;;;2.87;2.20;;;;;;;15.07;49.37;96373.53;5086883;28;20193;-74
2023/04/03 08:52:24;;;;;;;4.13;2.20;;;;;;;15.25;49.56;96366.94;5086442;28;20648;-76
2023/04/03 08:54:55;;;;;;;2.37;1.97;;;;;;;15.43;48.71;96378.63;5085877;28;20193;-79
2023/04/03 08:57:36;;;;;;;1.57;1.47;;;;;;;15.77;46.57;96379.50;5086853;28;20194;-78
2023/04/03 09:00:15;;;;;;;2.47;1.30;;;;;;;15.78;45.39;96383.78;5085598;28;20554;-79
2023/04/03 09:02:48;;;;;;;3.80;2.40;;;;;;;15.73;46.83;96377.25;5067747;28;20184;-80
2023/04/03 09:05:18;;;;;;;3.17;1.50;;;;;;;15.95;45.04;96359.00;5085530;28;20204;-79
2023/04/03 09:07:51;;;;;;;4.43;1.60;;;;;;;16.18;45.76;96371.06;5067615;28;20199;-80
2023/04/03 09:10:26;;;;;;;3.27;2.40;;;;;;;16.23;46.43;96372.38;5087206;28;20184;-75
2023/04/03 09:13:06;;;;;;;8.83;3.90;;;;;;;16.29;46.73;96371.91;5085323;28;20221;-77
2023/04/03 09:15:34;;;;;;;8.43;3.27;;;;;;;16.49;46.17;96366.84;5067910;28;20710;-79
2023/04/03 09:18:10;;;;;;;2.63;1.93;;;;;;;16.32;46.59;96368.22;5086262;28;20180;-78
2023/04/03 09:20:55;;;;;;;2.90;2.20;;;;;;;15.62;48.20;96343.31;5067262;28;20196;-74
2023/04/03 09:23:23;;;;;;;4.70;3.20;;;;;;;15.99;48.06;96350.78;5068435;28;20196;-76
2023/04/03 09:25:53;;;;;;;4.67;2.80;;;;;;;15.99;47.65;96350.78;5067412;28;20629;-79
2023/04/03 09:28:20;;;;;;;3.20;2.00;;;;;;;16.17;47.69;96357.19;5088756;28;20557;-79
2023/04/03 09:30:47;;;;;;;4.33;1.90;;;;;;;16.14;48.29;96346.97;5085847;28;20224;-78
2023/04/03 09:33:16;;;;;;;4.63;2.07;;;;;;;15.98;48.60;96343.91;5068624;28;20239;-80
2023/04/03 09:35:43;;;;;;;3.23;2.33;;;;;;;15.94;49.01;96332.03;5086421;28;20185;-77
2023/04/03 09:38:18;;;;;;;6.00;2.20;;;;;;;15.98;48.86;96323.00;5085980;28;20482;-79
2023/04/03 09:40:48;;;;;;;6.27;2.17;;;;;;;16.01;48.40;96348.88;5086567;28;20223;-77
2023/04/03 09:43:24;;;;;;;1.90;1.70;;;;;;;15.81;49.12;96343.53;5085046;28;21317;-74
2023/04/03 09:45:52;;;;;;;2.93;1.87;;;;;;;15.97;49.04;96357.09;5067657;28;20208;-77
2023/04/03 09:48:26;;;;;;;3.53;1.90;;;;;;;16.00;49.76;96364.66;5065504;28;20186;-80
2023/04/03 09:50:59;;;;;;;2.57;1.90;;;;;;;15.91;49.47;96366.22;5047282;28;20578;-77
2023/04/03 09:53:29;;;;;;;2.50;2.30;;;;;;;15.89;50.49;96351.63;5066050;28;20621;-76
2023/04/03 09:55:56;;;;;;;5.63;2.60;;;;;;;15.89;50.87;96352.44;5064700;28;20217;-79
2023/04/03 09:58:28;;;;;;;2.00;1.80;;;;;;;15.89;50.07;96351.63;5065611;28;20646;-78
2023/04/03 10:01:28;;;;;;;4.80;2.30;;;;;;;15.85;50.49;96368.47;5046783;28;20212;-77
2023/04/03 10:04:13;;;;;;;3.27;2.20;;;;;;;15.41;51.19;96319.66;5068040;28;20189;-78
2023/04/03 10:06:49;;;;;;;3.67;2.30;;;;;;;15.59;51.66;96362.66;5069452;28;20185;-76
2023/04/03 10:09:29;;;;;;;2.37;2.10;;;;;;;15.79;51.49;96351.50;5068758;28;20196;-81
2023/04/03 10:12:06;;;;;;;3.47;2.77;;;;;;;15.83;51.28;96355.53;5069708;28;20249;-78
2023/04/03 10:14:36;;;;;;;6.37;3.80;;;;;;;15.70;51.07;96326.13;5068865;28;20706;-80
2023/04/03 10:17:10;;;;;;;3.00;2.23;;;;;;;15.76;51.56;96350.91;5068769;28;20227;-76
2023/04/03 10:19:42;;;;;;;3.57;2.30;;;;;;;15.62;52.24;96346.72;5069468;28;20200;-76
2023/04/03 10:22:20;;;;;;;2.10;1.90;;;;;;;15.59;52.38;96338.31;5066734;28;20241;-78
2023/04/03 10:25:23;;;;;;;2.80;2.00;;;;;;;15.58;52.71;96345.31;5069013;28;20196;-74
2023/04/03 10:28:00;;;;;;;2.83;2.40;;;;;;;15.73;52.55;96346.75;5058886;28;20743;-75
2023/04/03 10:30:41;;;;;;;6.23;2.37;;;;;;;15.74;52.44;96332.75;5068073;28;20511;-76
2023/04/03 10:33:30;;;;;;;7.17;2.77;;;;;;;15.74;52.44;96335.38;5068995;28;20601;-78
2023/04/03 10:36:23;;;;;;;5.10;2.10;;;;;;;15.75;52.24;96328.34;5050772;28;20258;-74
2023/04/03 10:39:09;;;;;;;2.40;2.03;;;;;;;15.61;52.46;96305.94;5067679;28;20238;-74
2023/04/03 10:42:01;;;;;;;5.67;2.27;;;;;;;15.52;52.73;96303.22;5050909;28;20181;-77
2023/04/03 10:44:43;;;;;;;5.07;3.03;;;;;;;15.39;52.76;96303.28;5050437;28;20181;-79
2023/04/03 10:47:36;;;;;;;7.73;3.60;;;;;;;15.61;51.70;96300.72;5049857;28;20618;-79
2023/04/03 10:50:14;;;;;;;4.53;2.23;;;;;;;15.57;50.66;96290.63;5068752;28;20189;-78
2023/04/03 10:53:00;;;;;;;3.67;2.10;;;;;;;15.47;49.93;96293.13;5068119;28;20248;-77
2023/04/03 10:55:59;;;;;;;3.57;2.40;;;;;;;15.58;50.47;96279.25;5068247;28;20190;-77
2023/04/03 10:58:32;;;;;;;5.30;2.70;;;;;;;15.76;52.13;96281.25;5037941;28;20236;-78
2023/04/03 11:01:18;;;;;;;1.77;1.50;;;;;;;15.69;53.51;96266.19;5067982;28;20204;-81
2023/04/03 11:03:52;;;;;;;2.43;1.90;;;;;;;15.71;54.46;96283.38;5050013;28;20238;-79
2023/04/03 11:06:23;;;;;;;2.50;1.60;;;;;;;15.90;55.99;96303.66;5067544;28;20578;-81
2023/04/03 11:09:31;;;;;;;4.00;1.80;;;;;;;15.85;54.44;96306.63;5067701;28;20275;-77
2023/04/03 11:12:06;;;;;;;3.57;1.80;;;;;;;15.72;54.02;96286.84;5030716;28;20783;-75
2023/04/03 11:14:37;;;;;;;3.93;2.23;;;;;;;15.66;53.87;96306.41;5066630;28;20653;-79
2023/04/03 11:17:28;;;;;;;5.93;2.50;;;;;;;15.60;53.23;96299.03;5068230;28;20561;-77
2023/04/03 11:20:32;;;;;;;1.73;1.50;;;;;;;15.53;52.79;96307.47;5050001;28;20244;-80
2023/04/03 11:23:34;;;;;;;3.27;2.13;;;;;;;15.67;52.25;96299.41;5055310;28;20204;-80
2023/04/03 11:26:22;;;;;;;5.57;2.40;;;;;;;15.63;52.10;96297.97;5049450;28;20679;-80
2023/04/03 11:28:56;;;;;;;8.37;2.50;;;;;;;15.73;52.25;96304.97;5068297;28;20193;-78
2023/04/03 11:31:47;;;;;;;4.67;2.17;;;;;;;15.75;52.30;96304.84;5049412;28;20637;-79
2023/04/03 11:34:34;;;;;;;4.57;1.80;;;;;;;15.68;52.77;96314.97;5067800;28;20182;-76
2023/04/03 11:37:04;;;;;;;2.20;1.80;;;;;;;15.45;51.62;96295.84;5067732;28;20189;-77
2023/04/03 11:39:35;;;;;;;3.20;2.10;;;;;;;15.46;51.79;96312.31;5067079;28;20237;-76
2023/04/03 11:42:39;;;;;;;2.87;2.10;;;;;;;15.40;51.98;96311.00;5069017;28;20280;-81
2023/04/03 11:45:23;;;;;;;3.33;2.40;;;;;;;15.47;53.57;96314.00;5068005;28;20217;-80
2023/04/03 11:47:53;;;;;;;2.90;1.70;;;;;;;15.41;52.20;96289.16;5049384;28;20199;-76
2023/04/03 11:50:39;;;;;;;3.80;1.90;;;;;;;15.42;52.25;96311.72;5068184;28;20287;-77
2023/04/03 11:53:06;;;;;;;3.07;1.60;;;;;;;15.46;52.53;96312.31;5067223;28;20224;-76